createdAt,value
2019-04-11T00:01:36.794Z,23.82
2019-04-11T00:03:59.857Z,23.83
2019-04-11T00:06:29.774Z,23.84
2019-04-11T00:09:00.597Z,23.87
2019-04-11T00:11:30.277Z,23.91
2019-04-11T00:16:28.915Z,24.02
2019-04-11T00:18:58.910Z,24.06
2019-04-11T00:21:28.842Z,24.11
2019-04-11T00:23:58.644Z,24.15
2019-04-11T00:26:28.557Z,24.18
2019-04-11T00:28:58.387Z,24.20
2019-04-11T00:31:28.533Z,24.20
2019-04-11T00:33:58.450Z,24.20
2019-04-11T00:36:28.443Z,24.21
2019-04-11T00:38:57.955Z,24.21
2019-04-11T00:41:28.098Z,24.22
2019-04-11T00:43:58.632Z,24.21
2019-04-11T00:46:28.676Z,24.21
2019-04-11T00:48:58.466Z,24.22
2019-04-11T00:51:27.929Z,24.23
2019-04-11T00:53:58.336Z,24.24
2019-04-11T00:56:28.410Z,24.24
2019-04-11T00:58:58.310Z,24.25
2019-04-11T01:01:28.496Z,24.29
2019-04-11T01:03:59.114Z,24.31
2019-04-11T01:06:28.684Z,24.31
2019-04-11T01:08:58.138Z,24.33
2019-04-11T01:11:27.930Z,24.32
2019-04-11T01:13:57.444Z,24.33
2019-04-11T01:17:01.495Z,24.24
2019-04-11T01:19:31.047Z,24.40
2019-04-11T01:22:01.241Z,24.43
2019-04-11T01:24:31.496Z,24.46
2019-04-11T01:27:01.502Z,24.47
2019-04-11T01:29:31.423Z,24.49
2019-04-11T01:32:04.266Z,24.53
2019-04-11T01:34:34.893Z,24.55
2019-04-11T01:37:04.667Z,24.56
2019-04-11T01:39:43.373Z,24.58
2019-04-11T01:42:13.262Z,24.61
2019-04-11T01:44:43.007Z,24.62
2019-04-11T01:47:15.731Z,24.62
2019-04-11T01:49:46.208Z,24.64
2019-04-11T01:52:15.672Z,24.65
2019-04-11T01:54:45.993Z,24.63
2019-04-11T01:57:15.930Z,24.62
2019-04-11T01:59:45.881Z,24.62
2019-04-11T02:02:37.124Z,24.63
2019-04-11T02:05:21.634Z,24.65
2019-04-11T02:07:51.197Z,24.65
2019-04-11T02:10:21.042Z,24.65
2019-04-11T02:12:51.119Z,24.64
2019-04-11T02:15:21.952Z,24.68
2019-04-11T02:17:51.818Z,24.72
2019-04-11T02:20:21.338Z,24.77
2019-04-11T02:22:55.595Z,24.80
2019-04-11T02:25:59.519Z,24.82
2019-04-11T02:28:31.536Z,24.83
2019-04-11T02:31:02.894Z,24.83
2019-04-11T02:33:32.950Z,24.85
2019-04-11T02:36:04.733Z,24.87
2019-04-11T02:38:34.764Z,24.87
2019-04-11T02:41:08.568Z,24.88
2019-04-11T02:43:40.093Z,24.88
2019-04-11T02:46:16.850Z,24.90
2019-04-11T02:48:40.647Z,24.90
2019-04-11T02:51:12.254Z,24.89
2019-04-11T02:53:41.873Z,24.88
2019-04-11T02:56:12.579Z,24.88
2019-04-11T02:58:44.011Z,24.88
2019-04-11T03:01:13.541Z,24.88
2019-04-11T03:03:43.117Z,24.89
2019-04-11T03:06:12.711Z,24.92
2019-04-11T03:08:43.522Z,24.91
2019-04-11T03:11:14.376Z,24.91
2019-04-11T03:13:46.512Z,24.89
2019-04-11T03:16:29.591Z,24.88
2019-04-11T03:19:05.645Z,24.88
2019-04-11T03:21:21.900Z,24.90
2019-04-11T03:23:51.367Z,24.91
2019-04-11T03:26:21.604Z,24.91
2019-04-11T03:28:55.583Z,24.95
2019-04-11T03:34:39.328Z,24.95
2019-04-11T03:39:15.500Z,24.94
2019-04-11T03:41:48.777Z,24.93
2019-04-11T03:44:10.116Z,24.92
2019-04-11T03:46:48.181Z,24.92
2019-04-11T03:49:16.473Z,24.91
2019-04-11T03:51:34.546Z,24.90
2019-04-11T03:54:07.437Z,24.88
2019-04-11T03:56:37.247Z,24.88
2019-04-11T03:59:10.329Z,24.87
2019-04-11T04:01:39.873Z,24.86
2019-04-11T04:04:11.295Z,24.87
2019-04-11T04:06:43.269Z,24.86
2019-04-11T04:09:13.209Z,24.87
2019-04-11T04:11:46.765Z,24.86
2019-04-11T04:14:28.620Z,24.88
2019-04-11T04:17:17.060Z,24.88
2019-04-11T04:20:19.449Z,24.90
2019-04-11T04:23:10.289Z,24.92
2019-04-11T04:25:42.630Z,24.93
2019-04-11T04:28:11.782Z,24.91
2019-04-11T04:30:43.325Z,24.92
2019-04-11T04:33:14.447Z,24.94
2019-04-11T04:35:44.769Z,24.97
2019-04-11T04:38:15.734Z,24.98
2019-04-11T04:41:00.668Z,25.00
2019-04-11T04:43:20.336Z,25.00
2019-04-11T04:46:08.626Z,25.02
2019-04-11T04:48:24.645Z,23.90
2019-04-11T04:50:55.035Z,25.06
2019-04-11T04:53:27.698Z,25.10
2019-04-11T04:55:54.918Z,25.11
2019-04-11T04:58:26.251Z,25.12
2019-04-11T05:00:56.757Z,25.13
2019-04-11T05:03:27.003Z,25.16
2019-04-11T05:05:58.228Z,25.15
2019-04-11T05:08:27.748Z,25.12
2019-04-11T05:10:57.885Z,25.10
2019-04-11T05:13:27.928Z,25.07
2019-04-11T05:16:08.473Z,25.03
2019-04-11T05:18:29.848Z,25.00
2019-04-11T05:20:59.550Z,25.01
2019-04-11T05:23:29.776Z,25.03
2019-04-11T05:26:00.164Z,25.09
2019-04-11T05:28:31.781Z,25.14
2019-04-11T05:31:02.578Z,25.18
2019-04-11T05:33:32.135Z,25.22
2019-04-11T05:36:01.679Z,25.25
2019-04-11T05:38:31.188Z,25.28
2019-04-11T05:41:00.701Z,25.29
2019-04-11T05:43:36.632Z,25.29
2019-04-11T05:46:04.483Z,25.30
2019-04-11T05:48:47.448Z,25.31
2019-04-11T05:51:21.239Z,25.32
2019-04-11T05:53:49.999Z,25.32
2019-04-11T05:56:23.642Z,25.30
2019-04-11T05:58:53.713Z,25.25
2019-04-11T06:01:36.413Z,25.24
2019-04-11T06:04:15.302Z,25.26
2019-04-11T06:06:52.836Z,25.28
2019-04-11T06:09:30.254Z,25.30
2019-04-11T06:12:21.727Z,25.31
2019-04-11T06:14:59.706Z,25.33
2019-04-11T06:17:30.144Z,25.34
2019-04-11T06:20:25.506Z,25.34
2019-04-11T06:23:14.926Z,25.35
2019-04-11T06:26:06.101Z,25.34
2019-04-11T06:28:36.113Z,25.36
2019-04-11T06:31:27.467Z,25.36
2019-04-11T06:34:02.545Z,25.37
2019-04-11T06:37:03.579Z,25.40
2019-04-11T06:39:57.772Z,25.41
2019-04-11T06:42:39.262Z,25.41
2019-04-11T06:45:34.143Z,25.42
2019-04-11T06:48:21.927Z,25.44
2019-04-11T06:51:01.839Z,25.47
2019-04-11T06:53:34.939Z,25.49
2019-04-11T06:56:23.423Z,25.53
2019-04-11T06:58:56.783Z,25.58
2019-04-11T07:01:29.959Z,25.62
2019-04-11T07:04:06.023Z,25.64
2019-04-11T07:06:37.795Z,25.66
2019-04-11T07:09:28.624Z,25.66
2019-04-11T07:12:03.503Z,25.65
2019-04-11T07:14:45.511Z,25.63
2019-04-11T07:17:33.906Z,25.61
2019-04-11T07:20:21.375Z,25.62
2019-04-11T07:23:08.553Z,25.64
2019-04-11T07:26:00.373Z,25.65
2019-04-11T07:29:04.638Z,25.66
2019-04-11T07:31:46.266Z,25.68
2019-04-11T07:34:43.754Z,25.68
2019-04-11T07:37:30.865Z,25.69
2019-04-11T07:40:26.815Z,25.69
2019-04-11T07:43:18.461Z,25.72
2019-04-11T07:46:26.883Z,25.73
2019-04-11T07:49:08.323Z,25.75
2019-04-11T07:51:42.922Z,25.73
2019-04-11T07:54:18.055Z,25.71
2019-04-11T07:56:55.122Z,25.70
2019-04-11T07:59:31.784Z,25.69
2019-04-11T08:02:29.560Z,25.70
2019-04-11T08:05:16.865Z,25.69
2019-04-11T08:08:06.265Z,25.68
2019-04-11T08:10:41.468Z,23.52
2019-04-11T08:13:15.069Z,25.65
2019-04-11T08:16:15.660Z,25.64
2019-04-11T08:19:10.695Z,25.64
2019-04-11T08:22:06.309Z,25.65
2019-04-11T08:24:42.651Z,25.67
2019-04-11T08:27:29.506Z,25.69
2019-04-11T08:30:00.370Z,25.72
2019-04-11T08:32:51.866Z,25.75
2019-04-11T08:35:53.661Z,25.77
2019-04-11T08:38:29.108Z,25.81
2019-04-11T08:41:03.129Z,25.80
2019-04-11T08:43:33.691Z,25.81
2019-04-11T08:46:13.057Z,25.81
2019-04-11T08:48:45.742Z,25.82
2019-04-11T08:51:16.888Z,25.81
2019-04-11T08:54:15.447Z,25.80
2019-04-11T08:56:47.311Z,25.81
2019-04-11T08:59:35.858Z,25.79
2019-04-11T09:02:06.863Z,25.80
2019-04-11T09:05:11.990Z,25.77
2019-04-11T09:07:56.584Z,25.76
2019-04-11T09:10:49.170Z,25.77
2019-04-11T09:13:38.105Z,25.78
2019-04-11T09:16:25.764Z,25.81
2019-04-11T09:18:59.613Z,25.85
2019-04-11T09:21:48.720Z,25.86
2019-04-11T09:24:30.734Z,25.87
2019-04-11T09:27:17.834Z,25.86
2019-04-11T09:29:52.443Z,25.87
2019-04-11T09:32:46.532Z,25.85
2019-04-11T09:35:24.338Z,25.85
2019-04-11T09:37:53.973Z,25.85
2019-04-11T09:40:41.666Z,25.85
2019-04-11T09:43:17.797Z,25.86
2019-04-11T09:46:06.196Z,25.86
2019-04-11T09:48:53.814Z,25.88
2019-04-11T09:51:45.345Z,25.89
2019-04-11T09:54:23.986Z,25.90
2019-04-11T09:57:28.941Z,25.90
2019-04-11T10:00:26.857Z,25.89
2019-04-11T10:03:13.200Z,25.90
2019-04-11T10:06:00.415Z,25.89
2019-04-11T10:08:44.240Z,25.88
2019-04-11T10:11:35.602Z,25.87
2019-04-11T10:14:11.213Z,25.85
2019-04-11T10:17:06.688Z,25.77
2019-04-11T10:19:48.431Z,25.71
2019-04-11T10:22:40.410Z,25.66
2019-04-11T10:25:16.875Z,25.61
2019-04-11T10:28:11.353Z,25.58
2019-04-11T10:30:58.520Z,25.60
2019-04-11T10:33:59.638Z,25.63
2019-04-11T10:36:39.053Z,25.63
2019-04-11T10:39:47.364Z,25.62
2019-04-11T10:42:18.053Z,25.62
2019-04-11T10:45:15.860Z,25.63
2019-04-11T10:47:47.302Z,25.64
2019-04-11T10:50:38.914Z,25.64
2019-04-11T10:53:08.937Z,25.67
2019-04-11T10:56:10.664Z,25.67
2019-04-11T10:58:47.186Z,25.68
2019-04-11T11:01:35.846Z,25.68
2019-04-11T11:04:12.102Z,25.68
2019-04-11T11:06:42.059Z,25.68
2019-04-11T11:09:30.476Z,25.68
2019-04-11T11:12:25.414Z,25.67
2019-04-11T11:15:29.440Z,25.68
2019-04-11T11:18:48.735Z,25.69
2019-04-11T11:21:05.545Z,25.69
2019-04-11T11:23:52.592Z,25.69
2019-04-11T11:26:24.812Z,25.70
2019-04-11T11:29:15.197Z,25.70
2019-04-11T11:31:54.706Z,25.70
2019-04-11T11:34:28.496Z,25.68
2019-04-11T11:37:24.988Z,25.64
2019-04-11T11:40:18.796Z,25.61
2019-04-11T11:43:08.567Z,25.55
2019-04-11T11:45:56.826Z,25.51
2019-04-11T11:48:41.660Z,25.47
2019-04-11T11:51:17.272Z,25.43
2019-04-11T11:54:05.193Z,25.42
2019-04-11T11:56:36.257Z,25.41
2019-04-11T11:59:13.293Z,25.39
2019-04-11T12:01:51.016Z,25.39
2019-04-11T12:04:40.461Z,25.38
2019-04-11T12:07:12.668Z,25.38
2019-04-11T12:10:00.718Z,25.38
2019-04-11T12:12:42.118Z,25.38
2019-04-11T12:15:30.326Z,25.37
2019-04-11T12:18:16.754Z,25.36
2019-04-11T12:20:51.384Z,25.36
2019-04-11T12:23:44.740Z,25.35
2019-04-11T12:26:05.389Z,25.35
2019-04-11T12:28:52.678Z,25.36
2019-04-11T12:31:22.323Z,25.36
2019-04-11T12:34:10.256Z,25.36
2019-04-11T12:36:44.635Z,25.36
2019-04-11T12:39:35.798Z,25.36
2019-04-11T12:42:12.550Z,25.36
2019-04-11T12:45:00.219Z,25.35
2019-04-11T12:47:38.303Z,25.36
2019-04-11T12:50:30.217Z,25.37
2019-04-11T12:53:11.312Z,25.36
2019-04-11T12:56:05.758Z,25.37
2019-04-11T12:58:41.666Z,25.38
2019-04-11T13:01:38.198Z,25.40
2019-04-11T13:04:25.441Z,25.44
2019-04-11T13:07:16.816Z,25.47
2019-04-11T13:09:58.333Z,25.51
2019-04-11T13:12:46.091Z,25.03
2019-04-11T13:15:46.510Z,25.55
2019-04-11T13:18:44.676Z,25.56
2019-04-11T13:21:16.252Z,25.56
2019-04-11T13:24:24.541Z,25.56
2019-04-11T13:27:31.409Z,25.56
2019-04-11T13:30:30.696Z,25.55
2019-04-11T13:36:36.399Z,25.52
2019-04-11T13:39:17.994Z,25.51
2019-04-11T13:42:00.915Z,25.52
2019-04-11T13:44:34.630Z,25.52
2019-04-11T13:47:31.826Z,25.52
2019-04-11T13:50:04.290Z,25.53
2019-04-11T13:52:49.645Z,25.52
2019-04-11T13:55:30.592Z,25.52
2019-04-11T13:58:34.454Z,25.52
2019-04-11T14:01:15.181Z,25.51
2019-04-11T14:04:08.713Z,25.51
2019-04-11T14:12:42.857Z,25.42
2019-04-11T14:15:15.799Z,25.39
2019-04-11T14:21:28.081Z,25.33
2019-04-11T14:24:17.998Z,25.29
2019-04-11T14:26:49.806Z,25.26
2019-04-11T14:29:41.531Z,25.23
2019-04-11T14:32:26.065Z,25.20
2019-04-11T14:35:23.358Z,25.19
2019-04-11T14:38:11.943Z,25.16
2019-04-11T14:41:01.803Z,25.15
2019-04-11T14:43:35.885Z,25.14
2019-04-11T14:46:36.686Z,25.12
2019-04-11T14:50:11.858Z,25.11
2019-04-11T14:53:06.926Z,25.10
2019-04-11T14:56:14.640Z,25.08
2019-04-11T14:58:59.352Z,25.07
2019-04-11T15:01:28.985Z,25.07
2019-04-11T15:04:17.373Z,25.05
2019-04-11T15:06:50.171Z,25.05
2019-04-11T15:10:09.233Z,25.03
2019-04-11T15:13:11.149Z,25.03
2019-04-11T15:15:58.227Z,25.23
2019-04-11T15:18:28.304Z,25.14
2019-04-11T15:21:26.208Z,25.08
2019-04-11T15:23:55.780Z,25.05
2019-04-11T15:27:08.736Z,25.03
2019-04-11T15:29:40.248Z,25.01
2019-04-11T15:32:27.390Z,24.98
2019-04-11T15:35:22.041Z,24.97
2019-04-11T15:38:09.261Z,24.97
2019-04-11T15:40:45.793Z,24.97
2019-04-11T15:43:43.307Z,24.97
2019-04-11T15:46:26.114Z,24.96
2019-04-11T15:49:31.416Z,24.95
2019-04-11T15:52:10.606Z,24.93
2019-04-11T15:54:55.230Z,24.93
2019-04-11T16:01:02.477Z,24.91
2019-04-11T16:03:51.359Z,24.93
2019-04-11T16:10:15.197Z,24.94
2019-04-11T16:12:52.732Z,24.94
2019-04-11T16:15:23.319Z,24.95
2019-04-11T16:18:10.801Z,24.98
2019-04-11T16:20:40.647Z,25.00
2019-04-11T16:23:25.924Z,25.02
2019-04-11T16:25:54.957Z,25.05
2019-04-11T16:29:00.234Z,25.07
2019-04-11T16:34:54.471Z,25.10
2019-04-11T16:38:00.235Z,25.10
2019-04-11T16:40:54.122Z,25.09
2019-04-11T16:43:25.161Z,25.03
2019-04-11T16:46:24.600Z,24.98
2019-04-11T16:48:55.663Z,24.94
2019-04-11T16:51:30.718Z,24.89
2019-04-11T16:54:13.908Z,24.86
2019-04-11T16:56:43.880Z,24.85
2019-04-11T16:59:35.200Z,24.82
2019-04-11T17:02:04.406Z,24.80
2019-04-11T17:04:33.924Z,24.80
2019-04-11T17:07:27.502Z,24.81
2019-04-11T17:09:57.514Z,24.81
2019-04-11T17:12:27.314Z,24.80
2019-04-11T17:14:56.978Z,24.79
2019-04-11T17:17:26.489Z,24.78
2019-04-11T17:19:56.100Z,24.78
2019-04-11T17:22:28.295Z,24.78
2019-04-11T17:25:06.141Z,24.78
2019-04-11T17:27:35.848Z,24.77
2019-04-11T17:30:05.800Z,24.76
2019-04-11T17:32:57.726Z,24.78
2019-04-11T17:35:27.345Z,24.78
2019-04-11T17:41:18.791Z,24.77
2019-04-11T17:43:51.491Z,24.79
2019-04-11T17:46:40.137Z,24.76
2019-04-11T17:49:09.764Z,24.74
2019-04-11T17:51:42.887Z,24.70
2019-04-11T17:54:13.362Z,24.73
2019-04-11T17:56:42.888Z,24.78
2019-04-11T17:59:12.771Z,24.84
2019-04-11T18:01:44.150Z,24.87
2019-04-11T18:04:14.123Z,24.89
2019-04-11T18:06:46.996Z,24.88
2019-04-11T18:09:15.400Z,24.85
2019-04-11T18:11:45.183Z,24.81
2019-04-11T18:14:14.863Z,24.75
2019-04-11T18:16:44.475Z,24.72
2019-04-11T18:19:14.088Z,24.69
2019-04-11T18:21:43.665Z,24.67
2019-04-11T18:24:13.535Z,24.67
2019-04-11T18:26:43.080Z,24.66
2019-04-11T18:29:12.621Z,24.67
2019-04-11T18:31:42.242Z,24.67
2019-04-11T18:34:12.141Z,24.69
2019-04-11T18:36:41.796Z,24.69
2019-04-11T18:39:11.763Z,24.68
2019-04-11T18:41:41.432Z,24.67
2019-04-11T18:44:11.383Z,24.66
2019-04-11T18:46:41.095Z,24.64
2019-04-11T18:49:10.936Z,24.61
2019-04-11T18:51:40.568Z,24.58
2019-04-11T18:54:10.199Z,24.56
2019-04-11T18:56:40.016Z,24.57
2019-04-11T18:59:09.980Z,24.56
2019-04-11T19:01:40.170Z,24.56
2019-04-11T19:04:12.048Z,24.56
2019-04-11T19:06:43.072Z,24.57
2019-04-11T19:09:16.744Z,24.57
2019-04-11T19:11:47.045Z,24.57
2019-04-11T19:14:16.871Z,24.60
2019-04-11T19:16:46.938Z,24.60
2019-04-11T19:19:18.360Z,24.57
2019-04-11T19:21:50.783Z,24.54
2019-04-11T19:24:19.056Z,24.52
2019-04-11T19:26:48.691Z,24.50
2019-04-11T19:29:18.470Z,24.47
2019-04-11T19:31:48.153Z,24.45
2019-04-11T19:34:17.791Z,24.43
2019-04-11T19:36:47.542Z,24.42
2019-04-11T19:39:17.583Z,24.41
2019-04-11T19:41:48.006Z,24.40
2019-04-11T19:44:19.364Z,24.38
2019-04-11T19:46:51.087Z,24.37
2019-04-11T19:49:21.136Z,24.35
2019-04-11T19:51:51.023Z,24.34
2019-04-11T19:54:20.761Z,24.32
2019-04-11T19:56:58.579Z,24.31
2019-04-11T19:59:28.552Z,24.29
2019-04-11T20:01:58.061Z,24.27
2019-04-11T20:04:27.644Z,24.27
2019-04-11T20:06:57.187Z,24.26
2019-04-11T20:09:26.929Z,24.25
2019-04-11T20:11:57.954Z,24.23
2019-04-11T20:14:28.094Z,24.23
2019-04-11T20:16:57.773Z,24.23
2019-04-11T20:19:28.134Z,24.21
2019-04-11T20:21:57.953Z,24.22
2019-04-11T20:24:27.840Z,24.20
2019-04-11T20:26:57.582Z,24.21
2019-04-11T20:29:27.242Z,24.19
2019-04-11T20:31:56.847Z,24.18
2019-04-11T20:34:27.995Z,24.17
2019-04-11T20:36:57.877Z,24.19
2019-04-11T20:39:27.430Z,24.20
2019-04-11T20:41:57.077Z,24.19
2019-04-11T20:44:27.433Z,24.18
2019-04-11T20:47:00.193Z,24.17
2019-04-11T20:49:29.250Z,24.17
2019-04-11T20:51:58.833Z,24.15
2019-04-11T20:54:28.478Z,24.14
2019-04-11T20:56:58.029Z,24.13
2019-04-11T20:59:34.437Z,24.12
2019-04-11T21:01:59.109Z,24.12
2019-04-11T21:04:31.308Z,24.10
2019-04-11T21:07:02.054Z,24.11
2019-04-11T21:09:33.240Z,24.10
2019-04-11T21:12:07.100Z,24.12
2019-04-11T21:14:33.818Z,24.10
2019-04-11T21:17:03.419Z,24.10
2019-04-11T21:19:33.145Z,24.10
2019-04-11T21:22:02.924Z,24.09
2019-04-11T21:24:32.502Z,24.09
2019-04-11T21:27:02.060Z,24.09
2019-04-11T21:29:31.652Z,24.08
2019-04-11T21:32:01.683Z,24.08
2019-04-11T21:34:32.344Z,24.07
2019-04-11T21:37:02.765Z,24.07
2019-04-11T21:39:32.410Z,24.07
2019-04-11T21:42:05.863Z,24.06
2019-04-11T21:44:35.841Z,24.07
2019-04-11T21:47:04.391Z,24.06
2019-04-11T21:49:36.778Z,24.07
2019-04-11T21:52:05.133Z,24.07
2019-04-11T21:54:34.748Z,24.07
2019-04-11T21:57:04.201Z,24.08
2019-04-11T21:59:33.702Z,24.08
2019-04-11T22:02:03.368Z,24.09
2019-04-11T22:04:32.844Z,24.08
2019-04-11T22:07:02.373Z,24.10
2019-04-11T22:09:32.995Z,24.10
2019-04-11T22:12:03.228Z,24.10
2019-04-11T22:14:32.719Z,24.10
2019-04-11T22:17:02.646Z,24.10
2019-04-11T22:19:32.128Z,24.10
2019-04-11T22:22:01.709Z,24.10
2019-04-11T22:24:31.237Z,24.10
2019-04-11T22:27:00.744Z,24.10
2019-04-11T22:29:30.209Z,24.10
2019-04-11T22:31:59.762Z,24.10
2019-04-11T22:34:41.756Z,24.09
2019-04-11T22:37:11.430Z,24.09
2019-04-11T22:39:40.908Z,24.08
2019-04-11T22:42:10.386Z,24.08
2019-04-11T22:44:40.028Z,24.07
2019-04-11T22:47:09.480Z,24.08
2019-04-11T22:49:39.519Z,24.08
2019-04-11T22:52:11.332Z,24.07
2019-04-11T22:54:41.814Z,24.07
2019-04-11T22:57:12.818Z,24.06
2019-04-11T22:59:44.980Z,24.06
2019-04-11T23:02:30.863Z,24.06
2019-04-11T23:05:00.412Z,24.06
2019-04-11T23:07:29.881Z,24.05
2019-04-11T23:09:59.332Z,24.06
2019-04-11T23:12:28.847Z,24.06
2019-04-11T23:14:58.430Z,24.05
2019-04-11T23:17:27.938Z,24.06
2019-04-11T23:19:57.431Z,24.07
2019-04-11T23:22:27.088Z,24.06
2019-04-11T23:24:56.570Z,24.05
2019-04-11T23:27:26.064Z,24.05
2019-04-11T23:29:55.639Z,24.05
2019-04-11T23:32:25.269Z,24.05
2019-04-11T23:34:54.881Z,24.04
2019-04-11T23:37:24.459Z,24.04
2019-04-11T23:39:53.960Z,24.04
2019-04-11T23:42:23.421Z,24.03
2019-04-11T23:44:52.993Z,24.02
2019-04-11T23:47:23.013Z,24.02
2019-04-11T23:49:55.989Z,24.03
2019-04-11T23:52:26.679Z,24.02
2019-04-11T23:54:58.239Z,24.02
2019-04-11T23:57:28.941Z,24.02
2019-04-11T23:59:59.798Z,24.02
